createdAt,value
2019-01-15T00:00:33.046Z,3.90
2019-01-15T00:03:38.010Z,3.80
2019-01-15T00:06:43.949Z,3.80
2019-01-15T00:09:48.897Z,3.70
2019-01-15T00:12:54.343Z,3.60
2019-01-15T00:15:59.276Z,3.60
2019-01-15T00:19:03.997Z,3.50
2019-01-15T00:22:09.050Z,3.50
2019-01-15T00:25:13.844Z,3.50
2019-01-15T00:28:18.847Z,3.50
2019-01-15T00:31:23.852Z,3.40
2019-01-15T00:34:28.682Z,3.40
2019-01-15T00:37:33.709Z,3.40
2019-01-15T00:40:38.557Z,3.50
2019-01-15T00:43:43.465Z,3.40
2019-01-15T00:46:48.529Z,3.40
2019-01-15T00:49:53.628Z,3.40
2019-01-15T00:52:58.729Z,3.40
2019-01-15T00:56:04.114Z,3.40
2019-01-15T00:59:09.240Z,3.40
2019-01-15T01:02:14.430Z,3.40
2019-01-15T01:05:19.674Z,3.30
2019-01-15T01:08:24.692Z,3.30
2019-01-15T01:11:29.948Z,3.30
2019-01-15T01:14:34.895Z,3.20
2019-01-15T01:17:40.650Z,3.10
2019-01-15T01:20:45.604Z,3.00
2019-01-15T01:23:50.579Z,3.00
2019-01-15T01:26:55.604Z,2.90
2019-01-15T01:30:00.676Z,3.00
2019-01-15T01:33:05.790Z,2.90
2019-01-15T01:36:10.664Z,2.90
2019-01-15T01:39:15.712Z,2.70
2019-01-15T01:42:20.644Z,2.70
2019-01-15T01:45:25.853Z,2.70
2019-01-15T01:48:31.130Z,2.50
2019-01-15T01:51:36.086Z,2.40
2019-01-15T01:54:41.341Z,2.40
2019-01-15T01:57:46.580Z,2.30
2019-01-15T02:00:51.691Z,2.30
2019-01-15T02:03:56.681Z,2.20
2019-01-15T02:07:01.779Z,2.30
2019-01-15T02:10:08.984Z,2.30
2019-01-15T02:13:13.915Z,2.30
2019-01-15T02:16:18.765Z,2.30
2019-01-15T02:19:23.686Z,2.20
2019-01-15T02:22:28.761Z,2.30
2019-01-15T02:25:33.833Z,2.30
2019-01-15T02:28:38.770Z,2.40
2019-01-15T02:31:43.646Z,2.40
2019-01-15T02:34:48.605Z,2.40
2019-01-15T02:37:53.610Z,2.50
2019-01-15T02:40:58.752Z,2.40
2019-01-15T02:44:03.694Z,2.30
2019-01-15T02:47:08.561Z,2.30
2019-01-15T02:50:15.766Z,2.10
2019-01-15T02:53:20.730Z,1.90
2019-01-15T02:56:25.905Z,2.00
2019-01-15T02:59:31.017Z,2.00
2019-01-15T03:02:36.113Z,2.10
2019-01-15T03:05:41.113Z,2.10
2019-01-15T03:08:45.994Z,2.10
2019-01-15T03:11:50.906Z,2.10
2019-01-15T03:14:55.879Z,2.00
2019-01-15T03:18:00.844Z,2.10
2019-01-15T03:21:05.817Z,2.00
2019-01-15T03:24:10.624Z,2.00
2019-01-15T03:27:15.604Z,2.00
2019-01-15T03:30:22.682Z,1.90
2019-01-15T03:33:27.819Z,1.80
2019-01-15T03:36:32.818Z,1.80
2019-01-15T03:39:40.965Z,1.80
2019-01-15T03:42:46.033Z,1.80
2019-01-15T03:45:51.068Z,1.80
2019-01-15T03:48:56.336Z,1.70
2019-01-15T03:52:01.520Z,1.70
2019-01-15T03:55:06.832Z,1.80
2019-01-15T03:58:11.847Z,1.80
2019-01-15T04:01:16.883Z,1.80
2019-01-15T04:04:21.809Z,1.90
2019-01-15T04:07:26.812Z,2.00
2019-01-15T04:10:31.768Z,2.10
2019-01-15T04:13:36.585Z,2.10
2019-01-15T04:16:41.551Z,2.20
2019-01-15T04:19:46.446Z,2.20
2019-01-15T04:22:51.501Z,2.20
2019-01-15T04:25:56.352Z,2.20
2019-01-15T04:29:01.285Z,2.20
2019-01-15T04:32:06.228Z,2.20
2019-01-15T04:35:11.442Z,2.20
2019-01-15T04:38:16.284Z,2.20
2019-01-15T04:41:21.352Z,2.20
2019-01-15T04:44:26.444Z,2.10
2019-01-15T04:47:31.443Z,2.00
2019-01-15T04:50:36.522Z,2.00
2019-01-15T04:53:42.481Z,2.00
2019-01-15T04:56:47.368Z,2.00
2019-01-15T04:59:52.602Z,2.00
2019-01-15T05:03:00.983Z,2.10
2019-01-15T05:06:05.967Z,2.10
2019-01-15T05:09:10.782Z,2.10
2019-01-15T05:12:15.762Z,2.10
2019-01-15T05:15:20.922Z,2.10
2019-01-15T05:18:26.064Z,2.10
2019-01-15T05:21:31.062Z,2.10
2019-01-15T05:24:36.165Z,2.10
2019-01-15T05:27:41.107Z,2.10
2019-01-15T05:30:45.965Z,2.10
2019-01-15T05:33:51.008Z,1.90
2019-01-15T05:36:56.024Z,1.80
2019-01-15T05:40:01.044Z,1.80
2019-01-15T05:43:06.302Z,1.90
2019-01-15T05:46:11.533Z,1.90
2019-01-15T05:49:16.497Z,1.90
2019-01-15T05:52:21.397Z,1.90
2019-01-15T05:55:26.563Z,1.90
2019-01-15T05:58:31.533Z,1.80
2019-01-15T06:01:36.846Z,1.80
2019-01-15T06:04:41.960Z,1.80
2019-01-15T06:07:46.931Z,1.80
2019-01-15T06:10:51.889Z,1.90
2019-01-15T06:13:56.727Z,1.90
2019-01-15T06:17:01.641Z,1.90
2019-01-15T06:20:08.650Z,1.90
2019-01-15T06:23:13.831Z,2.00
2019-01-15T06:26:20.299Z,2.00
2019-01-15T06:29:25.555Z,2.00
2019-01-15T06:32:30.625Z,2.00
2019-01-15T06:35:35.833Z,2.00
2019-01-15T06:38:40.793Z,2.00
2019-01-15T06:41:45.915Z,1.90
2019-01-15T06:44:53.936Z,1.90
2019-01-15T06:47:59.055Z,2.00
2019-01-15T06:51:04.232Z,2.00
2019-01-15T06:54:09.056Z,2.00
2019-01-15T06:57:14.159Z,2.00
2019-01-15T07:00:22.634Z,2.00
2019-01-15T07:03:27.601Z,2.00
2019-01-15T07:06:32.494Z,2.10
2019-01-15T07:09:37.438Z,2.10
2019-01-15T07:12:42.385Z,2.00
2019-01-15T07:15:47.524Z,1.90
2019-01-15T07:18:52.945Z,1.90
2019-01-15T07:21:58.096Z,1.90
2019-01-15T07:25:03.038Z,1.90
2019-01-15T07:28:08.394Z,2.00
2019-01-15T07:31:13.519Z,2.00
2019-01-15T07:34:18.570Z,2.10
2019-01-15T07:37:23.584Z,2.20
2019-01-15T07:40:28.522Z,2.40
2019-01-15T07:43:33.458Z,2.60
2019-01-15T07:46:38.638Z,2.70
2019-01-15T07:49:43.653Z,2.80
2019-01-15T07:52:48.819Z,3.00
2019-01-15T07:55:54.152Z,3.20
2019-01-15T07:58:59.289Z,3.50
2019-01-15T08:02:04.619Z,3.70
2019-01-15T08:05:10.510Z,4.00
2019-01-15T08:08:15.451Z,4.10
2019-01-15T08:11:20.332Z,4.30
2019-01-15T08:14:25.355Z,4.40
2019-01-15T08:17:30.489Z,4.70
2019-01-15T08:20:35.363Z,4.90
2019-01-15T08:23:40.490Z,5.00
2019-01-15T08:26:46.159Z,5.20
2019-01-15T08:29:51.268Z,5.30
2019-01-15T08:32:56.103Z,5.40
2019-01-15T08:36:01.117Z,5.50
2019-01-15T08:39:08.545Z,5.70
2019-01-15T08:42:13.445Z,5.70
2019-01-15T08:45:18.716Z,5.90
2019-01-15T08:48:25.692Z,6.10
2019-01-15T08:51:30.989Z,6.30
2019-01-15T08:54:35.955Z,6.40
2019-01-15T08:57:41.317Z,6.60
2019-01-15T09:00:46.300Z,6.90
2019-01-15T09:03:51.455Z,7.20
2019-01-15T09:06:56.357Z,7.30
2019-01-15T09:10:01.241Z,7.40
2019-01-15T09:13:06.321Z,7.50
2019-01-15T09:16:14.259Z,7.70
2019-01-15T09:19:19.357Z,7.80
2019-01-15T09:22:24.434Z,7.40
2019-01-15T09:25:29.859Z,7.30
2019-01-15T09:28:34.733Z,7.20
2019-01-15T09:31:39.724Z,7.10
2019-01-15T09:34:44.608Z,7.10
2019-01-15T09:37:50.763Z,7.00
2019-01-15T09:40:55.665Z,6.80
2019-01-15T09:44:00.802Z,6.80
2019-01-15T09:47:06.008Z,6.50
2019-01-15T09:50:11.735Z,6.30
2019-01-15T09:53:16.737Z,6.20
2019-01-15T09:56:21.937Z,6.10
2019-01-15T09:59:26.865Z,6.20
2019-01-15T10:02:33.520Z,6.10
2019-01-15T10:05:38.570Z,6.00
2019-01-15T10:08:43.751Z,6.00
2019-01-15T10:11:48.885Z,6.10
2019-01-15T10:14:53.773Z,6.30
2019-01-15T10:17:58.660Z,6.40
2019-01-15T10:21:03.640Z,6.50
2019-01-15T10:24:09.678Z,6.70
2019-01-15T10:27:15.728Z,6.70
2019-01-15T10:30:41.040Z,6.80
2019-01-15T10:33:50.702Z,6.80
2019-01-15T10:36:53.744Z,7.00
2019-01-15T10:39:58.653Z,7.10
2019-01-15T10:43:03.842Z,7.20
2019-01-15T10:46:08.783Z,7.40
2019-01-15T10:49:13.714Z,7.40
2019-01-15T10:52:18.877Z,7.40
2019-01-15T10:55:23.851Z,7.60
2019-01-15T10:58:28.885Z,7.60
2019-01-15T11:01:33.801Z,7.40
2019-01-15T11:04:38.839Z,7.50
2019-01-15T11:07:43.768Z,7.70
2019-01-15T11:10:54.876Z,8.00
2019-01-15T11:13:59.899Z,8.20
2019-01-15T11:17:04.989Z,8.10
2019-01-15T11:20:11.904Z,7.90
2019-01-15T11:23:17.229Z,8.60
2019-01-15T11:26:22.386Z,10.50
2019-01-15T11:29:27.343Z,13.50
2019-01-15T11:32:32.453Z,15.50
2019-01-15T11:35:37.431Z,15.80
2019-01-15T11:38:42.529Z,15.50
2019-01-15T11:41:47.614Z,15.70
2019-01-15T11:44:52.807Z,15.50
2019-01-15T11:47:57.790Z,16.30
2019-01-15T11:51:02.799Z,17.40
2019-01-15T11:54:08.128Z,18.50
2019-01-15T11:57:13.265Z,18.40
2019-01-15T12:00:26.085Z,18.30
2019-01-15T12:03:53.070Z,18.40
2019-01-15T12:07:15.517Z,19.80
2019-01-15T12:10:28.338Z,20.30
2019-01-15T12:13:55.216Z,21.50
2019-01-15T12:17:14.341Z,24.10
2019-01-15T12:20:44.074Z,24.80
2019-01-15T12:24:10.215Z,25.20
2019-01-15T12:27:33.006Z,25.70
2019-01-15T12:31:15.063Z,25.40
2019-01-15T12:34:38.985Z,25.60
2019-01-15T12:38:18.637Z,25.90
2019-01-15T12:41:54.759Z,27.20
2019-01-15T12:45:18.402Z,26.80
2019-01-15T12:48:42.367Z,27.60
2019-01-15T12:52:05.203Z,28.60
2019-01-15T12:55:34.884Z,28.90
2019-01-15T12:59:01.959Z,29.00
2019-01-15T13:02:44.032Z,29.10
2019-01-15T13:06:23.082Z,29.80
2019-01-15T13:09:45.720Z,29.20
2019-01-15T13:13:09.916Z,29.10
2019-01-15T13:16:33.676Z,28.50
2019-01-15T13:19:48.383Z,27.90
2019-01-15T13:23:00.782Z,27.50
2019-01-15T13:26:26.033Z,27.60
2019-01-15T13:29:48.822Z,27.10
2019-01-15T13:33:12.905Z,26.90
2019-01-15T13:36:53.163Z,26.10
2019-01-15T13:40:16.869Z,25.60
2019-01-15T13:43:46.847Z,25.30
2019-01-15T13:47:13.917Z,24.50
2019-01-15T13:50:37.469Z,22.80
2019-01-15T13:54:00.277Z,21.10
2019-01-15T13:57:30.557Z,21.50
2019-01-15T14:01:06.500Z,21.40
2019-01-15T14:04:28.975Z,19.40
2019-01-15T14:07:58.710Z,17.20
2019-01-15T14:11:25.232Z,16.70
2019-01-15T14:14:58.346Z,16.20
2019-01-15T14:18:31.274Z,16.00
2019-01-15T14:21:54.349Z,15.60
2019-01-15T14:25:14.751Z,15.60
2019-01-15T14:28:44.532Z,16.00
2019-01-15T14:32:07.633Z,15.90
2019-01-15T14:35:40.832Z,15.30
2019-01-15T14:39:00.413Z,14.30
2019-01-15T14:42:42.815Z,12.90
2019-01-15T14:46:09.421Z,12.10
2019-01-15T14:49:35.871Z,11.50
2019-01-15T14:52:58.737Z,10.90
2019-01-15T14:56:28.475Z,10.50
2019-01-15T15:00:01.068Z,10.20
2019-01-15T15:03:31.197Z,10.10
2019-01-15T15:06:55.062Z,9.90
2019-01-15T15:10:24.739Z,9.70
2019-01-15T15:13:42.800Z,9.40
2019-01-15T15:17:09.241Z,9.20
2019-01-15T15:20:36.385Z,9.10
2019-01-15T15:24:06.473Z,9.00
2019-01-15T15:27:33.376Z,8.90
2019-01-15T15:30:57.279Z,8.80
2019-01-15T15:34:20.035Z,8.60
2019-01-15T15:37:47.168Z,8.50
2019-01-15T15:41:18.439Z,8.40
2019-01-15T15:44:42.715Z,8.30
2019-01-15T15:48:05.242Z,8.10
2019-01-15T15:51:35.060Z,8.00
2019-01-15T15:54:57.813Z,7.90
2019-01-15T15:58:10.736Z,7.80
2019-01-15T16:01:40.689Z,7.70
2019-01-15T16:05:03.129Z,7.70
2019-01-15T16:08:25.943Z,7.60
2019-01-15T16:11:49.869Z,7.60
2019-01-15T16:15:31.870Z,7.60
2019-01-15T16:18:47.427Z,7.60
2019-01-15T16:22:11.398Z,7.50
2019-01-15T16:25:38.411Z,7.40
2019-01-15T16:29:10.864Z,7.40
2019-01-15T16:32:32.392Z,7.40
2019-01-15T16:35:56.414Z,7.30
2019-01-15T16:39:23.064Z,7.20
2019-01-15T16:42:45.929Z,7.10
2019-01-15T16:46:26.192Z,7.10
2019-01-15T16:49:56.586Z,7.10
2019-01-15T16:53:35.928Z,7.00
2019-01-15T16:57:00.112Z,6.90
2019-01-15T17:00:36.515Z,6.90
2019-01-15T17:04:12.955Z,6.80
2019-01-15T17:07:47.266Z,6.60
2019-01-15T17:11:14.206Z,6.50
2019-01-15T17:14:56.654Z,6.40
2019-01-15T17:18:22.158Z,6.30
2019-01-15T17:21:40.708Z,6.20
2019-01-15T17:25:07.590Z,6.20
2019-01-15T17:28:30.391Z,6.10
2019-01-15T17:31:57.601Z,5.90
2019-01-15T17:35:20.527Z,5.90
2019-01-15T17:38:47.722Z,5.80
2019-01-15T17:42:10.021Z,5.80
2019-01-15T17:45:32.730Z,5.60
2019-01-15T17:48:55.669Z,5.50
2019-01-15T17:52:22.375Z,5.50
2019-01-15T17:55:55.474Z,5.40
2019-01-15T17:59:17.934Z,5.40
2019-01-15T18:02:47.806Z,5.20
2019-01-15T18:06:19.557Z,5.00
2019-01-15T18:09:43.377Z,4.90
2019-01-15T18:13:10.215Z,4.90
2019-01-15T18:16:37.374Z,5.00
2019-01-15T18:20:19.581Z,4.90
2019-01-15T18:23:42.274Z,4.80
2019-01-15T18:27:06.188Z,4.80
2019-01-15T18:30:41.101Z,4.80
2019-01-15T18:34:04.856Z,4.70
2019-01-15T18:37:27.894Z,4.50
2019-01-15T18:40:53.732Z,4.50
2019-01-15T18:44:16.236Z,4.40
2019-01-15T18:47:36.377Z,4.30
2019-01-15T18:50:59.780Z,4.40
2019-01-15T18:54:22.491Z,4.30
2019-01-15T18:57:45.580Z,4.20
2019-01-15T19:01:09.829Z,4.30
2019-01-15T19:04:43.021Z,4.20
2019-01-15T19:08:10.879Z,4.20
2019-01-15T19:11:26.296Z,4.20
2019-01-15T19:14:48.846Z,4.20
2019-01-15T19:18:12.945Z,4.20
2019-01-15T19:21:35.300Z,4.20
2019-01-15T19:24:59.337Z,4.20
2019-01-15T19:28:23.334Z,4.10
2019-01-15T19:31:44.954Z,4.20
2019-01-15T19:35:07.345Z,4.20
2019-01-15T19:38:34.307Z,4.20
2019-01-15T19:41:58.867Z,4.10
2019-01-15T19:45:25.895Z,4.10
2019-01-15T19:48:52.849Z,4.20
2019-01-15T19:52:14.178Z,4.20
2019-01-15T19:55:47.312Z,4.20
2019-01-15T19:59:11.387Z,4.20
2019-01-15T20:02:44.723Z,4.20
2019-01-15T20:06:13.374Z,4.10
2019-01-15T20:09:34.638Z,4.10
2019-01-15T20:12:57.266Z,4.10
2019-01-15T20:16:23.869Z,4.10
2019-01-15T20:19:50.672Z,4.20
2019-01-15T20:23:14.539Z,4.20
2019-01-15T20:26:37.400Z,4.30
2019-01-15T20:30:10.230Z,4.30
2019-01-15T20:33:37.623Z,4.20
2019-01-15T20:37:00.885Z,4.20
2019-01-15T20:40:42.638Z,4.10
2019-01-15T20:44:05.658Z,4.10
2019-01-15T20:47:30.001Z,4.10
2019-01-15T20:50:53.672Z,4.00
2019-01-15T20:54:16.208Z,4.00
2019-01-15T20:57:39.017Z,3.90
2019-01-15T21:01:15.089Z,3.80
2019-01-15T21:04:46.478Z,3.70
2019-01-15T21:08:22.521Z,3.70
2019-01-15T21:11:49.306Z,3.70
2019-01-15T21:15:13.157Z,3.70
2019-01-15T21:18:42.877Z,3.70
2019-01-15T21:22:15.859Z,3.70
2019-01-15T21:25:54.923Z,3.60
2019-01-15T21:29:19.246Z,3.50
2019-01-15T21:32:55.141Z,3.50
2019-01-15T21:36:12.760Z,3.50
2019-01-15T21:39:35.834Z,3.40
2019-01-15T21:42:58.476Z,3.50
2019-01-15T21:46:25.125Z,3.50
2019-01-15T21:49:48.553Z,3.50
2019-01-15T21:53:11.072Z,3.50
2019-01-15T21:56:53.324Z,3.50
2019-01-15T22:00:10.309Z,3.50
2019-01-15T22:03:22.485Z,3.50
2019-01-15T22:06:51.371Z,3.60
2019-01-15T22:10:33.573Z,3.50
2019-01-15T22:13:56.507Z,3.50
2019-01-15T22:17:19.302Z,3.50
2019-01-15T22:20:57.415Z,3.50
2019-01-15T22:24:31.410Z,3.40
2019-01-15T22:27:48.029Z,3.30
2019-01-15T22:31:30.161Z,3.20
2019-01-15T22:34:55.906Z,3.20
2019-01-15T22:38:22.605Z,3.20
2019-01-15T22:41:41.779Z,3.10
2019-01-15T22:45:11.793Z,3.10
2019-01-15T22:48:54.354Z,3.10
2019-01-15T22:52:36.723Z,3.10
2019-01-15T22:55:52.779Z,3.10
2019-01-15T22:59:16.485Z,3.00
2019-01-15T23:02:55.760Z,3.00
2019-01-15T23:06:28.739Z,2.90
2019-01-15T23:09:56.257Z,2.90
2019-01-15T23:13:18.802Z,2.90
2019-01-15T23:16:42.112Z,2.80
2019-01-15T23:19:58.225Z,2.70
2019-01-15T23:23:40.342Z,2.70
2019-01-15T23:26:55.669Z,2.70
2019-01-15T23:30:11.735Z,2.70
2019-01-15T23:33:41.614Z,2.70
2019-01-15T23:37:05.316Z,2.70
2019-01-15T23:40:35.471Z,2.60
2019-01-15T23:43:58.021Z,2.50
2019-01-15T23:47:22.339Z,2.50
2019-01-15T23:50:35.584Z,2.40
2019-01-15T23:54:17.924Z,2.30
2019-01-15T23:57:50.982Z,2.30
